sensor_id;sensor_type;location;lat;lon;timestamp;P1;durP1;ratioP1;P2;durP2;ratioP2
77430;SDS011;66498;48.564;19.272;2023-03-11T00:00:35;251.77;;;27.63;;
77430;SDS011;66498;48.564;19.272;2023-03-11T00:03:04;211.98;;;30.08;;
77430;SDS011;66498;48.564;19.272;2023-03-11T00:05:32;89.72;;;33.13;;
77430;SDS011;66498;48.564;19.272;2023-03-11T00:08:03;67.40;;;36.10;;
77430;SDS011;66498;48.564;19.272;2023-03-11T00:10:33;73.40;;;37.65;;
77430;SDS011;66498;48.564;19.272;2023-03-11T00:13:02;54.75;;;32.15;;
77430;SDS011;66498;48.564;19.272;2023-03-11T00:15:29;50.28;;;29.73;;
77430;SDS011;66498;48.564;19.272;2023-03-11T00:17:54;50.65;;;30.73;;
77430;SDS011;66498;48.564;19.272;2023-03-11T00:20:22;55.88;;;31.67;;
77430;SDS011;66498;48.564;19.272;2023-03-11T00:22:49;42.03;;;26.30;;
77430;SDS011;66498;48.564;19.272;2023-03-11T00:25:15;36.03;;;23.35;;
77430;SDS011;66498;48.564;19.272;2023-03-11T00:27:41;28.20;;;19.50;;
77430;SDS011;66498;48.564;19.272;2023-03-11T00:30:08;29.48;;;20.35;;
77430;SDS011;66498;48.564;19.272;2023-03-11T00:32:34;24.75;;;16.42;;
77430;SDS011;66498;48.564;19.272;2023-03-11T00:35:00;16.00;;;10.70;;
77430;SDS011;66498;48.564;19.272;2023-03-11T00:37:25;11.88;;;8.35;;
77430;SDS011;66498;48.564;19.272;2023-03-11T00:39:51;12.93;;;8.50;;
77430;SDS011;66498;48.564;19.272;2023-03-11T00:42:16;11.57;;;8.52;;
77430;SDS011;66498;48.564;19.272;2023-03-11T00:44:42;10.48;;;6.80;;
77430;SDS011;66498;48.564;19.272;2023-03-11T00:47:08;13.35;;;8.48;;
77430;SDS011;66498;48.564;19.272;2023-03-11T00:49:36;12.40;;;8.57;;
77430;SDS011;66498;48.564;19.272;2023-03-11T00:52:02;11.35;;;7.18;;
77430;SDS011;66498;48.564;19.272;2023-03-11T00:54:28;10.45;;;8.23;;
77430;SDS011;66498;48.564;19.272;2023-03-11T00:56:53;6.93;;;4.28;;
77430;SDS011;66498;48.564;19.272;2023-03-11T00:59:19;9.48;;;6.18;;
77430;SDS011;66498;48.564;19.272;2023-03-11T01:01:44;7.78;;;5.95;;
77430;SDS011;66498;48.564;19.272;2023-03-11T01:04:10;7.05;;;4.82;;
77430;SDS011;66498;48.564;19.272;2023-03-11T01:06:35;9.52;;;5.32;;
77430;SDS011;66498;48.564;19.272;2023-03-11T01:09:00;6.05;;;3.70;;
77430;SDS011;66498;48.564;19.272;2023-03-11T01:11:26;4.88;;;3.60;;
77430;SDS011;66498;48.564;19.272;2023-03-11T01:13:51;3.92;;;3.17;;
77430;SDS011;66498;48.564;19.272;2023-03-11T01:16:17;2.95;;;2.30;;
77430;SDS011;66498;48.564;19.272;2023-03-11T01:18:42;3.60;;;2.65;;
77430;SDS011;66498;48.564;19.272;2023-03-11T01:21:08;2.78;;;2.38;;
77430;SDS011;66498;48.564;19.272;2023-03-11T01:23:33;4.03;;;2.83;;
77430;SDS011;66498;48.564;19.272;2023-03-11T01:25:59;2.88;;;2.25;;
77430;SDS011;66498;48.564;19.272;2023-03-11T01:28:24;1.67;;;1.58;;
77430;SDS011;66498;48.564;19.272;2023-03-11T01:30:50;2.60;;;2.10;;
77430;SDS011;66498;48.564;19.272;2023-03-11T01:33:16;2.28;;;1.80;;
77430;SDS011;66498;48.564;19.272;2023-03-11T01:35:43;2.00;;;1.80;;
77430;SDS011;66498;48.564;19.272;2023-03-11T01:38:10;1.52;;;1.40;;
77430;SDS011;66498;48.564;19.272;2023-03-11T01:40:40;1.35;;;1.25;;
77430;SDS011;66498;48.564;19.272;2023-03-11T01:48:29;1.58;;;1.48;;
77430;SDS011;66498;48.564;19.272;2023-03-11T01:50:54;1.50;;;1.30;;
77430;SDS011;66498;48.564;19.272;2023-03-11T01:53:20;1.63;;;1.50;;
77430;SDS011;66498;48.564;19.272;2023-03-11T01:55:48;1.83;;;1.50;;
77430;SDS011;66498;48.564;19.272;2023-03-11T01:58:15;1.83;;;1.63;;
77430;SDS011;66498;48.564;19.272;2023-03-11T02:00:45;1.50;;;1.40;;
77430;SDS011;66498;48.564;19.272;2023-03-11T02:03:18;2.58;;;1.65;;
77430;SDS011;66498;48.564;19.272;2023-03-11T02:05:50;1.50;;;1.40;;
77430;SDS011;66498;48.564;19.272;2023-03-11T02:08:18;1.60;;;1.30;;
77430;SDS011;66498;48.564;19.272;2023-03-11T02:10:43;1.55;;;1.45;;
77430;SDS011;66498;48.564;19.272;2023-03-11T02:13:11;1.50;;;1.40;;
77430;SDS011;66498;48.564;19.272;2023-03-11T02:15:36;3.08;;;1.58;;
77430;SDS011;66498;48.564;19.272;2023-03-11T02:18:03;1.63;;;1.30;;
77430;SDS011;66498;48.564;19.272;2023-03-11T02:23:20;1.30;;;1.20;;
77430;SDS011;66498;48.564;19.272;2023-03-11T02:25:53;1.27;;;1.17;;
77430;SDS011;66498;48.564;19.272;2023-03-11T02:28:20;1.33;;;1.23;;
77430;SDS011;66498;48.564;19.272;2023-03-11T02:30:47;1.17;;;1.15;;
77430;SDS011;66498;48.564;19.272;2023-03-11T02:33:14;1.10;;;1.10;;
77430;SDS011;66498;48.564;19.272;2023-03-11T02:35:40;1.50;;;1.40;;
77430;SDS011;66498;48.564;19.272;2023-03-11T02:38:06;1.83;;;1.55;;
77430;SDS011;66498;48.564;19.272;2023-03-11T02:43:05;3.70;;;1.52;;
77430;SDS011;66498;48.564;19.272;2023-03-11T02:45:33;1.60;;;1.50;;
77430;SDS011;66498;48.564;19.272;2023-03-11T02:48:00;2.83;;;2.10;;
77430;SDS011;66498;48.564;19.272;2023-03-11T02:50:25;2.75;;;2.30;;
77430;SDS011;66498;48.564;19.272;2023-03-11T02:52:53;1.70;;;1.60;;
77430;SDS011;66498;48.564;19.272;2023-03-11T02:55:19;2.85;;;1.90;;
77430;SDS011;66498;48.564;19.272;2023-03-11T02:57:46;1.95;;;1.70;;
77430;SDS011;66498;48.564;19.272;2023-03-11T03:00:13;2.13;;;1.90;;
77430;SDS011;66498;48.564;19.272;2023-03-11T03:02:41;2.92;;;1.67;;
77430;SDS011;66498;48.564;19.272;2023-03-11T03:05:08;1.60;;;1.50;;
77430;SDS011;66498;48.564;19.272;2023-03-11T03:07:35;1.60;;;1.50;;
77430;SDS011;66498;48.564;19.272;2023-03-11T03:10:01;1.90;;;1.75;;
77430;SDS011;66498;48.564;19.272;2023-03-11T03:12:27;5.05;;;2.08;;
77430;SDS011;66498;48.564;19.272;2023-03-11T03:14:53;2.75;;;1.83;;
77430;SDS011;66498;48.564;19.272;2023-03-11T03:17:18;3.47;;;2.78;;
77430;SDS011;66498;48.564;19.272;2023-03-11T03:19:44;7.43;;;6.10;;
77430;SDS011;66498;48.564;19.272;2023-03-11T03:22:09;10.68;;;9.57;;
77430;SDS011;66498;48.564;19.272;2023-03-11T03:24:35;8.55;;;7.55;;
77430;SDS011;66498;48.564;19.272;2023-03-11T03:27:00;4.95;;;4.10;;
77430;SDS011;66498;48.564;19.272;2023-03-11T03:29:26;4.47;;;3.00;;
77430;SDS011;66498;48.564;19.272;2023-03-11T03:31:52;3.38;;;2.65;;
77430;SDS011;66498;48.564;19.272;2023-03-11T03:34:17;3.20;;;1.98;;
77430;SDS011;66498;48.564;19.272;2023-03-11T03:36:43;4.57;;;3.28;;
77430;SDS011;66498;48.564;19.272;2023-03-11T03:39:08;2.53;;;2.20;;
77430;SDS011;66498;48.564;19.272;2023-03-11T03:41:34;2.55;;;1.88;;
77430;SDS011;66498;48.564;19.272;2023-03-11T03:43:59;2.38;;;1.80;;
77430;SDS011;66498;48.564;19.272;2023-03-11T03:46:25;1.27;;;1.17;;
77430;SDS011;66498;48.564;19.272;2023-03-11T03:48:50;2.10;;;1.48;;
77430;SDS011;66498;48.564;19.272;2023-03-11T03:51:16;2.95;;;1.70;;
77430;SDS011;66498;48.564;19.272;2023-03-11T03:53:42;2.63;;;1.40;;
77430;SDS011;66498;48.564;19.272;2023-03-11T03:56:09;1.50;;;1.40;;
77430;SDS011;66498;48.564;19.272;2023-03-11T03:58:36;1.38;;;1.27;;
77430;SDS011;66498;48.564;19.272;2023-03-11T04:01:02;1.38;;;1.27;;
77430;SDS011;66498;48.564;19.272;2023-03-11T04:03:28;1.40;;;1.30;;
77430;SDS011;66498;48.564;19.272;2023-03-11T04:06:03;2.25;;;1.60;;
77430;SDS011;66498;48.564;19.272;2023-03-11T04:08:30;4.85;;;2.40;;
77430;SDS011;66498;48.564;19.272;2023-03-11T04:10:56;1.40;;;1.30;;
77430;SDS011;66498;48.564;19.272;2023-03-11T04:13:21;2.00;;;1.77;;
77430;SDS011;66498;48.564;19.272;2023-03-11T04:15:47;2.83;;;1.60;;
77430;SDS011;66498;48.564;19.272;2023-03-11T04:18:12;1.75;;;1.38;;
77430;SDS011;66498;48.564;19.272;2023-03-11T04:20:38;1.38;;;1.27;;
77430;SDS011;66498;48.564;19.272;2023-03-11T04:23:03;1.40;;;1.30;;
77430;SDS011;66498;48.564;19.272;2023-03-11T04:25:29;2.05;;;1.60;;
77430;SDS011;66498;48.564;19.272;2023-03-11T04:27:54;2.00;;;1.80;;
77430;SDS011;66498;48.564;19.272;2023-03-11T04:30:20;1.92;;;1.33;;
77430;SDS011;66498;48.564;19.272;2023-03-11T04:32:45;2.20;;;1.88;;
77430;SDS011;66498;48.564;19.272;2023-03-11T04:35:11;1.15;;;1.05;;
77430;SDS011;66498;48.564;19.272;2023-03-11T04:37:36;0.90;;;0.90;;
77430;SDS011;66498;48.564;19.272;2023-03-11T04:40:02;1.00;;;1.00;;
77430;SDS011;66498;48.564;19.272;2023-03-11T04:42:29;1.13;;;1.00;;
77430;SDS011;66498;48.564;19.272;2023-03-11T04:44:55;1.25;;;1.00;;
77430;SDS011;66498;48.564;19.272;2023-03-11T04:47:20;1.20;;;1.10;;
77430;SDS011;66498;48.564;19.272;2023-03-11T04:49:46;0.95;;;0.90;;
77430;SDS011;66498;48.564;19.272;2023-03-11T04:52:11;2.35;;;1.30;;
77430;SDS011;66498;48.564;19.272;2023-03-11T04:54:37;2.63;;;1.42;;
77430;SDS011;66498;48.564;19.272;2023-03-11T04:57:03;1.35;;;1.10;;
77430;SDS011;66498;48.564;19.272;2023-03-11T04:59:28;1.50;;;1.40;;
77430;SDS011;66498;48.564;19.272;2023-03-11T05:01:54;2.13;;;1.40;;
77430;SDS011;66498;48.564;19.272;2023-03-11T05:04:19;1.60;;;1.50;;
77430;SDS011;66498;48.564;19.272;2023-03-11T05:06:45;1.40;;;1.30;;
77430;SDS011;66498;48.564;19.272;2023-03-11T05:09:11;1.65;;;1.50;;
77430;SDS011;66498;48.564;19.272;2023-03-11T05:11:36;1.83;;;1.40;;
77430;SDS011;66498;48.564;19.272;2023-03-11T05:14:02;1.65;;;1.52;;
77430;SDS011;66498;48.564;19.272;2023-03-11T05:16:27;1.98;;;1.60;;
77430;SDS011;66498;48.564;19.272;2023-03-11T05:18:53;1.77;;;1.67;;
77430;SDS011;66498;48.564;19.272;2023-03-11T05:21:18;2.20;;;1.90;;
77430;SDS011;66498;48.564;19.272;2023-03-11T05:23:44;2.42;;;1.80;;
77430;SDS011;66498;48.564;19.272;2023-03-11T05:26:09;3.97;;;2.35;;
77430;SDS011;66498;48.564;19.272;2023-03-11T05:28:35;5.68;;;2.63;;
77430;SDS011;66498;48.564;19.272;2023-03-11T05:31:01;3.90;;;2.33;;
77430;SDS011;66498;48.564;19.272;2023-03-11T05:33:26;1.58;;;1.48;;
77430;SDS011;66498;48.564;19.272;2023-03-11T05:36:01;2.63;;;2.20;;
77430;SDS011;66498;48.564;19.272;2023-03-11T05:38:28;3.30;;;2.60;;
77430;SDS011;66498;48.564;19.272;2023-03-11T05:40:54;6.72;;;2.70;;
77430;SDS011;66498;48.564;19.272;2023-03-11T05:43:19;3.28;;;1.77;;
77430;SDS011;66498;48.564;19.272;2023-03-11T05:45:44;2.38;;;2.03;;
77430;SDS011;66498;48.564;19.272;2023-03-11T05:48:10;3.08;;;2.03;;
77430;SDS011;66498;48.564;19.272;2023-03-11T05:50:36;3.35;;;2.80;;
77430;SDS011;66498;48.564;19.272;2023-03-11T05:53:02;3.03;;;2.50;;
77430;SDS011;66498;48.564;19.272;2023-03-11T05:55:27;2.58;;;2.35;;
77430;SDS011;66498;48.564;19.272;2023-03-11T05:57:52;2.30;;;1.80;;
77430;SDS011;66498;48.564;19.272;2023-03-11T06:00:18;3.35;;;2.63;;
77430;SDS011;66498;48.564;19.272;2023-03-11T06:02:44;2.58;;;2.03;;
77430;SDS011;66498;48.564;19.272;2023-03-11T06:05:10;2.38;;;2.03;;
77430;SDS011;66498;48.564;19.272;2023-03-11T06:07:35;3.08;;;2.35;;
77430;SDS011;66498;48.564;19.272;2023-03-11T06:10:02;6.13;;;3.78;;
77430;SDS011;66498;48.564;19.272;2023-03-11T06:12:28;6.10;;;4.28;;
77430;SDS011;66498;48.564;19.272;2023-03-11T06:14:54;3.80;;;2.80;;
77430;SDS011;66498;48.564;19.272;2023-03-11T06:17:19;4.28;;;3.28;;
77430;SDS011;66498;48.564;19.272;2023-03-11T06:19:45;5.45;;;3.47;;
77430;SDS011;66498;48.564;19.272;2023-03-11T06:22:10;5.20;;;2.90;;
77430;SDS011;66498;48.564;19.272;2023-03-11T06:24:36;3.35;;;2.67;;
77430;SDS011;66498;48.564;19.272;2023-03-11T06:27:01;5.32;;;2.90;;
77430;SDS011;66498;48.564;19.272;2023-03-11T06:29:28;4.22;;;2.85;;
77430;SDS011;66498;48.564;19.272;2023-03-11T06:31:54;3.05;;;2.38;;
77430;SDS011;66498;48.564;19.272;2023-03-11T06:34:20;3.03;;;2.40;;
77430;SDS011;66498;48.564;19.272;2023-03-11T06:36:46;4.00;;;2.60;;
77430;SDS011;66498;48.564;19.272;2023-03-11T06:39:14;3.08;;;2.33;;
77430;SDS011;66498;48.564;19.272;2023-03-11T06:41:40;2.80;;;2.00;;
77430;SDS011;66498;48.564;19.272;2023-03-11T06:44:08;4.68;;;2.55;;
77430;SDS011;66498;48.564;19.272;2023-03-11T06:46:34;4.50;;;2.67;;
77430;SDS011;66498;48.564;19.272;2023-03-11T06:49:00;2.88;;;2.28;;
77430;SDS011;66498;48.564;19.272;2023-03-11T06:51:26;3.78;;;2.58;;
77430;SDS011;66498;48.564;19.272;2023-03-11T06:53:52;2.70;;;2.28;;
77430;SDS011;66498;48.564;19.272;2023-03-11T06:56:18;3.13;;;2.60;;
77430;SDS011;66498;48.564;19.272;2023-03-11T06:58:45;3.25;;;2.53;;
77430;SDS011;66498;48.564;19.272;2023-03-11T07:01:14;5.55;;;2.75;;
77430;SDS011;66498;48.564;19.272;2023-03-11T07:03:41;4.25;;;2.63;;
77430;SDS011;66498;48.564;19.272;2023-03-11T07:06:11;4.40;;;2.92;;
77430;SDS011;66498;48.564;19.272;2023-03-11T07:08:38;3.67;;;2.40;;
77430;SDS011;66498;48.564;19.272;2023-03-11T07:13:34;7.25;;;4.10;;
77430;SDS011;66498;48.564;19.272;2023-03-11T07:16:04;5.70;;;3.22;;
77430;SDS011;66498;48.564;19.272;2023-03-11T07:18:35;4.38;;;3.20;;
77430;SDS011;66498;48.564;19.272;2023-03-11T07:21:01;2.67;;;2.25;;
77430;SDS011;66498;48.564;19.272;2023-03-11T07:23:28;4.70;;;2.58;;
77430;SDS011;66498;48.564;19.272;2023-03-11T07:25:53;3.28;;;1.90;;
77430;SDS011;66498;48.564;19.272;2023-03-11T07:28:20;3.47;;;2.63;;
77430;SDS011;66498;48.564;19.272;2023-03-11T07:30:47;3.80;;;2.70;;
77430;SDS011;66498;48.564;19.272;2023-03-11T07:33:12;3.50;;;2.47;;
77430;SDS011;66498;48.564;19.272;2023-03-11T07:35:39;3.60;;;2.45;;
77430;SDS011;66498;48.564;19.272;2023-03-11T07:38:04;2.88;;;2.35;;
77430;SDS011;66498;48.564;19.272;2023-03-11T07:40:30;3.67;;;2.63;;
77430;SDS011;66498;48.564;19.272;2023-03-11T07:42:56;2.75;;;2.25;;
77430;SDS011;66498;48.564;19.272;2023-03-11T07:45:22;3.60;;;2.88;;
77430;SDS011;66498;48.564;19.272;2023-03-11T07:47:48;3.47;;;2.50;;
77430;SDS011;66498;48.564;19.272;2023-03-11T07:50:17;3.75;;;2.83;;
77430;SDS011;66498;48.564;19.272;2023-03-11T07:52:46;5.43;;;3.03;;
77430;SDS011;66498;48.564;19.272;2023-03-11T07:55:12;3.42;;;2.35;;
77430;SDS011;66498;48.564;19.272;2023-03-11T07:57:37;3.75;;;2.72;;
77430;SDS011;66498;48.564;19.272;2023-03-11T08:00:03;3.10;;;2.60;;
77430;SDS011;66498;48.564;19.272;2023-03-11T08:02:30;3.83;;;2.70;;
77430;SDS011;66498;48.564;19.272;2023-03-11T08:04:55;3.20;;;2.47;;
77430;SDS011;66498;48.564;19.272;2023-03-11T08:07:21;2.90;;;2.47;;
77430;SDS011;66498;48.564;19.272;2023-03-11T08:09:47;3.45;;;2.55;;
77430;SDS011;66498;48.564;19.272;2023-03-11T08:12:12;3.92;;;2.30;;
77430;SDS011;66498;48.564;19.272;2023-03-11T08:14:39;3.40;;;2.45;;
77430;SDS011;66498;48.564;19.272;2023-03-11T08:17:07;2.83;;;2.28;;
77430;SDS011;66498;48.564;19.272;2023-03-11T08:19:34;2.78;;;2.20;;
77430;SDS011;66498;48.564;19.272;2023-03-11T08:22:03;3.88;;;2.78;;
77430;SDS011;66498;48.564;19.272;2023-03-11T08:24:29;3.67;;;2.55;;
77430;SDS011;66498;48.564;19.272;2023-03-11T08:26:55;2.38;;;2.08;;
77430;SDS011;66498;48.564;19.272;2023-03-11T08:29:22;3.17;;;2.58;;
77430;SDS011;66498;48.564;19.272;2023-03-11T08:31:48;2.72;;;2.22;;
77430;SDS011;66498;48.564;19.272;2023-03-11T08:34:14;3.97;;;2.85;;
77430;SDS011;66498;48.564;19.272;2023-03-11T08:36:41;4.10;;;2.75;;
77430;SDS011;66498;48.564;19.272;2023-03-11T08:39:07;4.00;;;2.83;;
77430;SDS011;66498;48.564;19.272;2023-03-11T08:41:32;2.95;;;2.50;;
77430;SDS011;66498;48.564;19.272;2023-03-11T08:43:58;3.35;;;2.38;;
77430;SDS011;66498;48.564;19.272;2023-03-11T08:48:51;3.00;;;2.22;;
77430;SDS011;66498;48.564;19.272;2023-03-11T08:51:17;2.63;;;2.40;;
77430;SDS011;66498;48.564;19.272;2023-03-11T08:53:44;3.45;;;2.15;;
77430;SDS011;66498;48.564;19.272;2023-03-11T08:56:10;2.65;;;2.20;;
77430;SDS011;66498;48.564;19.272;2023-03-11T08:58:36;2.78;;;2.28;;
77430;SDS011;66498;48.564;19.272;2023-03-11T09:01:02;2.63;;;2.00;;
77430;SDS011;66498;48.564;19.272;2023-03-11T09:03:31;3.28;;;2.50;;
77430;SDS011;66498;48.564;19.272;2023-03-11T09:05:59;2.80;;;2.17;;
77430;SDS011;66498;48.564;19.272;2023-03-11T09:08:27;2.60;;;2.25;;
77430;SDS011;66498;48.564;19.272;2023-03-11T09:10:52;6.55;;;2.63;;
77430;SDS011;66498;48.564;19.272;2023-03-11T09:13:18;3.88;;;2.60;;
77430;SDS011;66498;48.564;19.272;2023-03-11T09:15:44;3.28;;;2.20;;
77430;SDS011;66498;48.564;19.272;2023-03-11T09:18:11;4.32;;;2.85;;
77430;SDS011;66498;48.564;19.272;2023-03-11T09:20:43;3.70;;;2.15;;
77430;SDS011;66498;48.564;19.272;2023-03-11T09:23:09;4.45;;;2.90;;
77430;SDS011;66498;48.564;19.272;2023-03-11T09:25:36;3.50;;;2.50;;
77430;SDS011;66498;48.564;19.272;2023-03-11T09:28:02;3.53;;;2.28;;
77430;SDS011;66498;48.564;19.272;2023-03-11T09:30:28;3.03;;;2.20;;
77430;SDS011;66498;48.564;19.272;2023-03-11T09:32:54;2.92;;;2.35;;
77430;SDS011;66498;48.564;19.272;2023-03-11T09:35:19;2.53;;;1.70;;
77430;SDS011;66498;48.564;19.272;2023-03-11T09:37:45;3.00;;;2.20;;
77430;SDS011;66498;48.564;19.272;2023-03-11T09:40:20;3.05;;;1.50;;
77430;SDS011;66498;48.564;19.272;2023-03-11T09:43:01;2.72;;;1.83;;
77430;SDS011;66498;48.564;19.272;2023-03-11T09:45:44;2.70;;;2.30;;
77430;SDS011;66498;48.564;19.272;2023-03-11T09:51:37;2.13;;;1.80;;
77430;SDS011;66498;48.564;19.272;2023-03-11T09:54:12;4.35;;;2.28;;
77430;SDS011;66498;48.564;19.272;2023-03-11T09:56:38;2.72;;;2.22;;
77430;SDS011;66498;48.564;19.272;2023-03-11T09:59:07;3.00;;;2.10;;
77430;SDS011;66498;48.564;19.272;2023-03-11T10:01:43;1.90;;;1.70;;
77430;SDS011;66498;48.564;19.272;2023-03-11T10:04:22;2.55;;;2.00;;
77430;SDS011;66498;48.564;19.272;2023-03-11T10:06:53;2.30;;;1.73;;
77430;SDS011;66498;48.564;19.272;2023-03-11T10:09:32;2.00;;;1.80;;
77430;SDS011;66498;48.564;19.272;2023-03-11T10:12:04;2.95;;;1.80;;
77430;SDS011;66498;48.564;19.272;2023-03-11T10:17:44;5.10;;;2.70;;
77430;SDS011;66498;48.564;19.272;2023-03-11T10:21:05;3.15;;;2.00;;
77430;SDS011;66498;48.564;19.272;2023-03-11T10:29:01;2.90;;;1.98;;
77430;SDS011;66498;48.564;19.272;2023-03-11T10:31:34;2.97;;;2.17;;
77430;SDS011;66498;48.564;19.272;2023-03-11T10:35:14;2.40;;;1.98;;
77430;SDS011;66498;48.564;19.272;2023-03-11T10:39:41;2.97;;;2.03;;
77430;SDS011;66498;48.564;19.272;2023-03-11T10:42:13;2.38;;;1.80;;
77430;SDS011;66498;48.564;19.272;2023-03-11T10:44:44;2.67;;;1.88;;
77430;SDS011;66498;48.564;19.272;2023-03-11T10:47:17;2.60;;;1.60;;
77430;SDS011;66498;48.564;19.272;2023-03-11T10:49:47;1.75;;;1.45;;
77430;SDS011;66498;48.564;19.272;2023-03-11T10:52:13;3.33;;;2.22;;
77430;SDS011;66498;48.564;19.272;2023-03-11T10:54:40;5.25;;;2.80;;
77430;SDS011;66498;48.564;19.272;2023-03-11T10:59:56;3.25;;;1.98;;
77430;SDS011;66498;48.564;19.272;2023-03-11T11:02:30;3.97;;;2.15;;
77430;SDS011;66498;48.564;19.272;2023-03-11T11:07:41;3.10;;;1.90;;
77430;SDS011;66498;48.564;19.272;2023-03-11T11:10:13;3.95;;;2.20;;
77430;SDS011;66498;48.564;19.272;2023-03-11T11:18:34;3.20;;;2.10;;
77430;SDS011;66498;48.564;19.272;2023-03-11T11:21:07;4.70;;;2.45;;
77430;SDS011;66498;48.564;19.272;2023-03-11T11:23:43;4.00;;;1.95;;
77430;SDS011;66498;48.564;19.272;2023-03-11T11:26:17;2.05;;;1.70;;
77430;SDS011;66498;48.564;19.272;2023-03-11T11:28:46;1.52;;;1.42;;
77430;SDS011;66498;48.564;19.272;2023-03-11T11:31:31;1.83;;;1.58;;
77430;SDS011;66498;48.564;19.272;2023-03-11T11:33:57;3.10;;;1.95;;
77430;SDS011;66498;48.564;19.272;2023-03-11T11:36:24;3.70;;;2.08;;
77430;SDS011;66498;48.564;19.272;2023-03-11T11:38:53;4.68;;;2.97;;
77430;SDS011;66498;48.564;19.272;2023-03-11T11:41:20;2.33;;;1.70;;
77430;SDS011;66498;48.564;19.272;2023-03-11T11:43:55;3.33;;;1.80;;
77430;SDS011;66498;48.564;19.272;2023-03-11T11:46:29;2.45;;;1.75;;
77430;SDS011;66498;48.564;19.272;2023-03-11T11:49:20;2.47;;;2.08;;
77430;SDS011;66498;48.564;19.272;2023-03-11T11:51:51;4.00;;;2.45;;
77430;SDS011;66498;48.564;19.272;2023-03-11T11:56:57;2.13;;;1.80;;
77430;SDS011;66498;48.564;19.272;2023-03-11T11:59:26;3.42;;;2.45;;
77430;SDS011;66498;48.564;19.272;2023-03-11T12:04:45;3.33;;;1.70;;
77430;SDS011;66498;48.564;19.272;2023-03-11T12:10:26;2.40;;;2.10;;
77430;SDS011;66498;48.564;19.272;2023-03-11T12:13:13;1.92;;;1.70;;
77430;SDS011;66498;48.564;19.272;2023-03-11T12:18:20;3.33;;;2.30;;
77430;SDS011;66498;48.564;19.272;2023-03-11T12:20:53;2.03;;;1.83;;
77430;SDS011;66498;48.564;19.272;2023-03-11T12:26:17;2.70;;;2.10;;
77430;SDS011;66498;48.564;19.272;2023-03-11T12:31:21;4.40;;;2.35;;
77430;SDS011;66498;48.564;19.272;2023-03-11T12:33:49;2.30;;;2.00;;
77430;SDS011;66498;48.564;19.272;2023-03-11T12:36:32;3.50;;;2.10;;
77430;SDS011;66498;48.564;19.272;2023-03-11T12:39:02;3.03;;;2.00;;
77430;SDS011;66498;48.564;19.272;2023-03-11T12:41:44;3.50;;;2.40;;
77430;SDS011;66498;48.564;19.272;2023-03-11T12:44:26;3.58;;;2.80;;
77430;SDS011;66498;48.564;19.272;2023-03-11T12:54:33;3.63;;;2.40;;
77430;SDS011;66498;48.564;19.272;2023-03-11T13:10:12;3.13;;;2.10;;
77430;SDS011;66498;48.564;19.272;2023-03-11T13:12:48;2.37;;;1.80;;
77430;SDS011;66498;48.564;19.272;2023-03-11T13:17:57;2.53;;;1.63;;
77430;SDS011;66498;48.564;19.272;2023-03-11T13:34:03;1.20;;;1.20;;
77430;SDS011;66498;48.564;19.272;2023-03-11T13:44:54;1.48;;;1.38;;
77430;SDS011;66498;48.564;19.272;2023-03-11T13:47:21;2.28;;;1.77;;
77430;SDS011;66498;48.564;19.272;2023-03-11T13:49:50;1.30;;;1.20;;
77430;SDS011;66498;48.564;19.272;2023-03-11T13:57:50;4.38;;;2.58;;
77430;SDS011;66498;48.564;19.272;2023-03-11T14:00:21;5.72;;;2.45;;
77430;SDS011;66498;48.564;19.272;2023-03-11T14:03:00;3.00;;;1.77;;
77430;SDS011;66498;48.564;19.272;2023-03-11T14:05:29;2.22;;;1.77;;
77430;SDS011;66498;48.564;19.272;2023-03-11T14:08:10;1.48;;;1.38;;
77430;SDS011;66498;48.564;19.272;2023-03-11T14:10:58;1.60;;;1.40;;
77430;SDS011;66498;48.564;19.272;2023-03-11T14:13:25;2.88;;;1.40;;
77430;SDS011;66498;48.564;19.272;2023-03-11T14:18:39;1.40;;;1.30;;
77430;SDS011;66498;48.564;19.272;2023-03-11T14:21:16;1.67;;;1.40;;
77430;SDS011;66498;48.564;19.272;2023-03-11T14:23:48;1.77;;;1.33;;
77430;SDS011;66498;48.564;19.272;2023-03-11T14:28:51;1.40;;;1.30;;
77430;SDS011;66498;48.564;19.272;2023-03-11T14:33:53;1.17;;;1.10;;
77430;SDS011;66498;48.564;19.272;2023-03-11T14:36:22;1.30;;;1.20;;
77430;SDS011;66498;48.564;19.272;2023-03-11T14:38:48;2.35;;;1.45;;
77430;SDS011;66498;48.564;19.272;2023-03-11T14:41:13;1.70;;;1.10;;
77430;SDS011;66498;48.564;19.272;2023-03-11T14:43:41;1.40;;;1.30;;
77430;SDS011;66498;48.564;19.272;2023-03-11T14:46:13;1.48;;;1.20;;
77430;SDS011;66498;48.564;19.272;2023-03-11T14:48:45;1.80;;;1.40;;
77430;SDS011;66498;48.564;19.272;2023-03-11T14:51:21;1.20;;;1.10;;
77430;SDS011;66498;48.564;19.272;2023-03-11T14:57:06;1.40;;;1.30;;
77430;SDS011;66498;48.564;19.272;2023-03-11T14:59:42;1.90;;;1.30;;
77430;SDS011;66498;48.564;19.272;2023-03-11T15:04:44;2.38;;;1.42;;
77430;SDS011;66498;48.564;19.272;2023-03-11T15:07:10;2.35;;;1.50;;
77430;SDS011;66498;48.564;19.272;2023-03-11T15:09:38;1.23;;;1.13;;
77430;SDS011;66498;48.564;19.272;2023-03-11T15:12:05;1.30;;;1.20;;
77430;SDS011;66498;48.564;19.272;2023-03-11T15:14:32;2.50;;;1.38;;
77430;SDS011;66498;48.564;19.272;2023-03-11T15:17:16;1.50;;;1.40;;
77430;SDS011;66498;48.564;19.272;2023-03-11T15:19:43;1.38;;;1.10;;
77430;SDS011;66498;48.564;19.272;2023-03-11T15:22:25;1.00;;;1.00;;
77430;SDS011;66498;48.564;19.272;2023-03-11T15:25:00;2.40;;;1.20;;
77430;SDS011;66498;48.564;19.272;2023-03-11T15:27:30;1.40;;;1.30;;
77430;SDS011;66498;48.564;19.272;2023-03-11T15:30:00;1.92;;;1.35;;
77430;SDS011;66498;48.564;19.272;2023-03-11T15:37:32;1.85;;;1.60;;
77430;SDS011;66498;48.564;19.272;2023-03-11T15:40:09;2.70;;;1.70;;
77430;SDS011;66498;48.564;19.272;2023-03-11T15:42:47;2.10;;;1.50;;
77430;SDS011;66498;48.564;19.272;2023-03-11T15:45:15;1.98;;;1.50;;
77430;SDS011;66498;48.564;19.272;2023-03-11T15:47:42;2.40;;;1.70;;
77430;SDS011;66498;48.564;19.272;2023-03-11T15:50:20;2.40;;;1.80;;
77430;SDS011;66498;48.564;19.272;2023-03-11T15:52:49;4.40;;;1.90;;
77430;SDS011;66498;48.564;19.272;2023-03-11T15:55:16;2.10;;;1.63;;
77430;SDS011;66498;48.564;19.272;2023-03-11T15:57:44;3.70;;;2.08;;
77430;SDS011;66498;48.564;19.272;2023-03-11T16:00:15;4.20;;;2.20;;
77430;SDS011;66498;48.564;19.272;2023-03-11T16:02:43;2.17;;;1.67;;
77430;SDS011;66498;48.564;19.272;2023-03-11T16:05:19;3.42;;;2.20;;
77430;SDS011;66498;48.564;19.272;2023-03-11T16:07:47;3.80;;;2.30;;
77430;SDS011;66498;48.564;19.272;2023-03-11T16:10:14;4.47;;;1.80;;
77430;SDS011;66498;48.564;19.272;2023-03-11T16:12:42;3.13;;;1.90;;
77430;SDS011;66498;48.564;19.272;2023-03-11T16:15:17;1.92;;;1.65;;
77430;SDS011;66498;48.564;19.272;2023-03-11T16:17:49;2.38;;;1.70;;
77430;SDS011;66498;48.564;19.272;2023-03-11T16:20:17;2.30;;;1.58;;
77430;SDS011;66498;48.564;19.272;2023-03-11T16:22:44;2.25;;;1.80;;
77430;SDS011;66498;48.564;19.272;2023-03-11T16:25:17;2.85;;;1.95;;
77430;SDS011;66498;48.564;19.272;2023-03-11T16:27:49;2.67;;;2.00;;
77430;SDS011;66498;48.564;19.272;2023-03-11T16:30:16;2.20;;;2.00;;
77430;SDS011;66498;48.564;19.272;2023-03-11T16:32:43;2.58;;;1.70;;
77430;SDS011;66498;48.564;19.272;2023-03-11T16:35:09;3.47;;;2.20;;
77430;SDS011;66498;48.564;19.272;2023-03-11T16:37:36;2.00;;;1.80;;
77430;SDS011;66498;48.564;19.272;2023-03-11T16:40:03;1.98;;;1.70;;
77430;SDS011;66498;48.564;19.272;2023-03-11T16:42:31;2.10;;;1.67;;
77430;SDS011;66498;48.564;19.272;2023-03-11T16:44:57;3.00;;;2.10;;
77430;SDS011;66498;48.564;19.272;2023-03-11T16:47:23;2.55;;;1.90;;